Main page
METAR-TAF:

METAR-TAF

Airports :

Pärnu Airport

Pärnu, Estonia

latitude: 58-25-09N, longitude: 024-28-22E, elevation: 14 m

Current weather observation

The report was made 1 hour and 5 minutes ago, at 10:50 UTC
Wind 4 kt from the West/Southwest, varying between South and West/Northwest
Temperature 3°C
Humidity 81%
Pressure 1014 hPa
Visibility 10 km or more
Overcast at a height of 1300 ft

METAR: EEPU 201050Z 25004KT 190V290 9999 OVC013 03/00 Q1014

Time: 13:55 (11:55 UTC)


TAF: missing

Weather observations and forecasts of more than 4000 airports (METAR and TAF reports).

The available stations are represented by yellow and red dots on the map.

Hover mouse over dot to see the name of the station.

Then click to see weather observations and forecasts.

To change the map : click on the green buttons with a black cross to zoom in, on the green button with a dash to zoom out, or on the green arrows for adjacent maps.


METAR-TAF: